Terminal Aerodrome Forecast
Issued by NWS Spokane, WA

Home | Current Version | Previous Version | Text Only | Print | Product List | Glossary On
Versions: 1 2 3 4 5 6 7 8 9 10 11 12 13 14 15 16 17 18 19 20 21 22 23 24 25 26 27 28 29
000
FTUS46 KOTX 231731
TAFEAT
TAF
KEAT 231731Z 2318/2418 08004KT P6SM VCSH SCT015 BKN060
      WS020/22025KT
     FM232000 29011G22KT P6SM VCSH SCT070 BKN100
      TEMPO 2320/2322 -SHRA BKN050 OVC090
     FM240200 30010KT P6SM SCT050=

USA.gov is the U.S. government's official web portal to all federal, state and local government web resources and services.